sensor_id;sensor_type;location;lat;lon;timestamp;pressure;altitude;pressure_sealevel;temperature;humidity
72414;BME280;60995;52.154;4.498;2023-07-29T00:01:06;100381.44;;;19.34;100.00
72414;BME280;60995;52.154;4.498;2023-07-29T00:03:22;100378.56;;;19.56;100.00
72414;BME280;60995;52.154;4.498;2023-07-29T00:05:39;100372.63;;;19.59;100.00
72414;BME280;60995;52.154;4.498;2023-07-29T00:07:56;100374.34;;;19.67;100.00
72414;BME280;60995;52.154;4.498;2023-07-29T00:10:13;100381.13;;;19.71;100.00
72414;BME280;60995;52.154;4.498;2023-07-29T00:12:29;100372.22;;;19.62;100.00
72414;BME280;60995;52.154;4.498;2023-07-29T00:14:45;100367.97;;;19.53;100.00
72414;BME280;60995;52.154;4.498;2023-07-29T00:17:01;100376.47;;;19.58;100.00
72414;BME280;60995;52.154;4.498;2023-07-29T00:19:18;100368.00;;;19.73;100.00
72414;BME280;60995;52.154;4.498;2023-07-29T00:21:36;100376.63;;;19.50;100.00
72414;BME280;60995;52.154;4.498;2023-07-29T00:23:52;100385.78;;;19.64;100.00
72414;BME280;60995;52.154;4.498;2023-07-29T00:26:08;100387.47;;;19.58;100.00
72414;BME280;60995;52.154;4.498;2023-07-29T00:28:25;100389.13;;;19.59;100.00
72414;BME280;60995;52.154;4.498;2023-07-29T00:30:41;100383.22;;;19.62;100.00
72414;BME280;60995;52.154;4.498;2023-07-29T00:32:57;100386.81;;;19.56;100.00
72414;BME280;60995;52.154;4.498;2023-07-29T00:35:14;100387.47;;;19.58;100.00
72414;BME280;60995;52.154;4.498;2023-07-29T00:37:30;100391.66;;;19.47;100.00
72414;BME280;60995;52.154;4.498;2023-07-29T00:39:46;100390.78;;;19.33;100.00
72414;BME280;60995;52.154;4.498;2023-07-29T00:42:03;100390.13;;;19.38;100.00
72414;BME280;60995;52.154;4.498;2023-07-29T00:44:20;100387.97;;;19.20;100.00
72414;BME280;60995;52.154;4.498;2023-07-29T00:46:38;100395.34;;;19.13;100.00
72414;BME280;60995;52.154;4.498;2023-07-29T00:48:56;100385.16;;;19.07;100.00
72414;BME280;60995;52.154;4.498;2023-07-29T00:51:13;100380.91;;;18.97;100.00
72414;BME280;60995;52.154;4.498;2023-07-29T00:53:29;100381.34;;;19.01;100.00
72414;BME280;60995;52.154;4.498;2023-07-29T00:55:46;100375.09;;;18.85;100.00
72414;BME280;60995;52.154;4.498;2023-07-29T00:58:02;100371.56;;;18.92;100.00
72414;BME280;60995;52.154;4.498;2023-07-29T01:00:19;100376.66;;;18.95;100.00
72414;BME280;60995;52.154;4.498;2023-07-29T01:02:36;100380.91;;;18.97;100.00
72414;BME280;60995;52.154;4.498;2023-07-29T01:04:57;100364.59;;;18.89;100.00
72414;BME280;60995;52.154;4.498;2023-07-29T01:07:22;100368.63;;;18.93;100.00
72414;BME280;60995;52.154;4.498;2023-07-29T01:10:22;100361.00;;;18.95;100.00
72414;BME280;60995;52.154;4.498;2023-07-29T01:13:06;100367.22;;;18.76;100.00
72414;BME280;60995;52.154;4.498;2023-07-29T01:18:18;100358.81;;;18.84;100.00
72414;BME280;60995;52.154;4.498;2023-07-29T01:20:42;100358.09;;;19.04;100.00
72414;BME280;60995;52.154;4.498;2023-07-29T01:22:59;100361.44;;;18.99;100.00
72414;BME280;60995;52.154;4.498;2023-07-29T01:25:16;100353.94;;;18.86;100.00
72414;BME280;60995;52.154;4.498;2023-07-29T01:27:32;100358.59;;;18.85;100.00
72414;BME280;60995;52.154;4.498;2023-07-29T01:29:49;100356.69;;;18.86;100.00
72414;BME280;60995;52.154;4.498;2023-07-29T01:32:10;100346.94;;;18.77;100.00
72414;BME280;60995;52.154;4.498;2023-07-29T01:34:48;100352.03;;;18.80;100.00
72414;BME280;60995;52.154;4.498;2023-07-29T01:37:14;100344.66;;;18.87;100.00
72414;BME280;60995;52.154;4.498;2023-07-29T01:39:36;100349.28;;;18.80;100.00
72414;BME280;60995;52.154;4.498;2023-07-29T01:41:54;100354.09;;;18.71;100.00
72414;BME280;60995;52.154;4.498;2023-07-29T01:44:12;100352.06;;;18.87;100.00
72414;BME280;60995;52.154;4.498;2023-07-29T01:46:29;100333.34;;;18.62;100.00
72414;BME280;60995;52.154;4.498;2023-07-29T01:48:49;100337.34;;;18.59;100.00
72414;BME280;60995;52.154;4.498;2023-07-29T01:51:06;100343.44;;;18.55;100.00
72414;BME280;60995;52.154;4.498;2023-07-29T01:53:23;100330.56;;;18.55;100.00
72414;BME280;60995;52.154;4.498;2023-07-29T01:55:41;100335.38;;;18.53;100.00
72414;BME280;60995;52.154;4.498;2023-07-29T01:57:58;100333.84;;;18.44;100.00
72414;BME280;60995;52.154;4.498;2023-07-29T02:00:15;100328.91;;;18.32;100.00
72414;BME280;60995;52.154;4.498;2023-07-29T02:02:32;100315.00;;;18.41;100.00
72414;BME280;60995;52.154;4.498;2023-07-29T02:04:48;100310.75;;;18.31;100.00
72414;BME280;60995;52.154;4.498;2023-07-29T02:07:07;100314.69;;;18.22;100.00
72414;BME280;60995;52.154;4.498;2023-07-29T02:09:23;100307.31;;;18.23;100.00
72414;BME280;60995;52.154;4.498;2023-07-29T02:11:41;100315.75;;;18.21;100.00
72414;BME280;60995;52.154;4.498;2023-07-29T02:13:57;100294.56;;;18.08;100.00
72414;BME280;60995;52.154;4.498;2023-07-29T02:16:14;100306.50;;;18.29;100.00
72414;BME280;60995;52.154;4.498;2023-07-29T02:18:30;100312.91;;;18.36;100.00
72414;BME280;60995;52.154;4.498;2023-07-29T02:20:46;100311.94;;;18.22;100.00
72414;BME280;60995;52.154;4.498;2023-07-29T02:23:05;100317.47;;;18.29;100.00
72414;BME280;60995;52.154;4.498;2023-07-29T02:25:21;100323.03;;;18.35;100.00
72414;BME280;60995;52.154;4.498;2023-07-29T02:27:37;100320.06;;;18.30;100.00
72414;BME280;60995;52.154;4.498;2023-07-29T02:29:54;100308.66;;;18.33;100.00
72414;BME280;60995;52.154;4.498;2023-07-29T02:32:10;100305.69;;;18.35;100.00
72414;BME280;60995;52.154;4.498;2023-07-29T02:34:27;100281.59;;;18.30;100.00
72414;BME280;60995;52.154;4.498;2023-07-29T02:36:43;100284.09;;;18.25;100.00
72414;BME280;60995;52.154;4.498;2023-07-29T02:38:59;100298.47;;;18.27;100.00
72414;BME280;60995;52.154;4.498;2023-07-29T02:41:15;100297.56;;;18.13;100.00
72414;BME280;60995;52.154;4.498;2023-07-29T02:43:32;100300.47;;;18.12;100.00
72414;BME280;60995;52.154;4.498;2023-07-29T02:45:48;100300.34;;;18.20;100.00
72414;BME280;60995;52.154;4.498;2023-07-29T02:48:04;100291.94;;;18.28;100.00
72414;BME280;60995;52.154;4.498;2023-07-29T02:50:20;100269.97;;;18.28;100.00
72414;BME280;60995;52.154;4.498;2023-07-29T02:52:37;100265.94;;;18.24;100.00
72414;BME280;60995;52.154;4.498;2023-07-29T02:54:53;100271.00;;;18.27;100.00
72414;BME280;60995;52.154;4.498;2023-07-29T02:57:09;100283.69;;;18.28;100.00
72414;BME280;60995;52.154;4.498;2023-07-29T02:59:25;100280.28;;;18.26;100.00
72414;BME280;60995;52.154;4.498;2023-07-29T03:01:42;100292.75;;;18.29;100.00
72414;BME280;60995;52.154;4.498;2023-07-29T03:03:58;100291.50;;;18.31;100.00
72414;BME280;60995;52.154;4.498;2023-07-29T03:06:15;100304.41;;;18.31;100.00
72414;BME280;60995;52.154;4.498;2023-07-29T03:08:31;100308.16;;;18.23;100.00
72414;BME280;60995;52.154;4.498;2023-07-29T03:10:48;100304.16;;;18.26;100.00
72414;BME280;60995;52.154;4.498;2023-07-29T03:13:04;100303.63;;;18.37;100.00
72414;BME280;60995;52.154;4.498;2023-07-29T03:15:23;100262.22;;;18.45;100.00
72414;BME280;60995;52.154;4.498;2023-07-29T03:17:40;100261.31;;;18.31;100.00
72414;BME280;60995;52.154;4.498;2023-07-29T03:19:57;100270.63;;;18.30;100.00
72414;BME280;60995;52.154;4.498;2023-07-29T03:22:13;100289.72;;;18.52;100.00
72414;BME280;60995;52.154;4.498;2023-07-29T03:24:29;100290.75;;;18.44;100.00
72414;BME280;60995;52.154;4.498;2023-07-29T03:26:45;100297.91;;;18.39;100.00
72414;BME280;60995;52.154;4.498;2023-07-29T03:29:02;100307.88;;;18.46;100.00
72414;BME280;60995;52.154;4.498;2023-07-29T03:31:18;100307.25;;;18.51;100.00
72414;BME280;60995;52.154;4.498;2023-07-29T03:33:34;100318.50;;;18.56;100.00
72414;BME280;60995;52.154;4.498;2023-07-29T03:35:51;100323.19;;;18.62;100.00
72414;BME280;60995;52.154;4.498;2023-07-29T03:38:08;100317.47;;;18.64;100.00
72414;BME280;60995;52.154;4.498;2023-07-29T03:40:24;100320.25;;;18.71;100.00
72414;BME280;60995;52.154;4.498;2023-07-29T03:42:40;100321.50;;;18.68;100.00
72414;BME280;60995;52.154;4.498;2023-07-29T03:44:57;100324.25;;;18.68;100.00
72414;BME280;60995;52.154;4.498;2023-07-29T03:47:14;100330.41;;;18.70;100.00
72414;BME280;60995;52.154;4.498;2023-07-29T03:49:31;100339.09;;;18.74;100.00
72414;BME280;60995;52.154;4.498;2023-07-29T03:51:47;100338.41;;;18.65;100.00
72414;BME280;60995;52.154;4.498;2023-07-29T03:54:03;100349.88;;;18.75;100.00
72414;BME280;60995;52.154;4.498;2023-07-29T03:56:19;100348.25;;;18.88;100.00
72414;BME280;60995;52.154;4.498;2023-07-29T03:58:36;100338.69;;;18.77;100.00
72414;BME280;60995;52.154;4.498;2023-07-29T04:00:52;100345.34;;;18.89;100.00
72414;BME280;60995;52.154;4.498;2023-07-29T04:03:09;100350.84;;;18.89;100.00
72414;BME280;60995;52.154;4.498;2023-07-29T04:05:25;100347.47;;;18.94;100.00
72414;BME280;60995;52.154;4.498;2023-07-29T04:07:42;100357.13;;;18.83;100.00
72414;BME280;60995;52.154;4.498;2023-07-29T04:09:58;100351.69;;;18.96;100.00
72414;BME280;60995;52.154;4.498;2023-07-29T04:12:15;100366.50;;;18.95;100.00
72414;BME280;60995;52.154;4.498;2023-07-29T04:14:31;100356.56;;;18.94;100.00
72414;BME280;60995;52.154;4.498;2023-07-29T04:16:47;100351.91;;;18.95;100.00
72414;BME280;60995;52.154;4.498;2023-07-29T04:19:05;100351.69;;;18.90;100.00
72414;BME280;60995;52.154;4.498;2023-07-29T04:21:21;100359.31;;;18.94;100.00
72414;BME280;60995;52.154;4.498;2023-07-29T04:23:37;100360.38;;;18.93;100.00
72414;BME280;60995;52.154;4.498;2023-07-29T04:25:54;100365.28;;;19.05;100.00
72414;BME280;60995;52.154;4.498;2023-07-29T04:28:10;100361.25;;;19.07;100.00
72414;BME280;60995;52.154;4.498;2023-07-29T04:30:27;100361.06;;;19.09;100.00
72414;BME280;60995;52.154;4.498;2023-07-29T04:32:43;100359.63;;;19.26;100.00
72414;BME280;60995;52.154;4.498;2023-07-29T04:35:00;100361.97;;;19.29;100.00
72414;BME280;60995;52.154;4.498;2023-07-29T04:37:17;100364.72;;;19.29;100.00
72414;BME280;60995;52.154;4.498;2023-07-29T04:39:33;100365.81;;;19.35;100.00
72414;BME280;60995;52.154;4.498;2023-07-29T04:41:49;100364.53;;;19.31;100.00
72414;BME280;60995;52.154;4.498;2023-07-29T04:44:05;100365.78;;;19.28;100.00
72414;BME280;60995;52.154;4.498;2023-07-29T04:46:22;100365.38;;;19.31;100.00
72414;BME280;60995;52.154;4.498;2023-07-29T04:48:38;100358.19;;;19.37;100.00
72414;BME280;60995;52.154;4.498;2023-07-29T04:50:55;100369.25;;;19.50;100.00
72414;BME280;60995;52.154;4.498;2023-07-29T04:53:11;100366.25;;;19.45;100.00
72414;BME280;60995;52.154;4.498;2023-07-29T04:55:27;100368.41;;;19.63;100.00
72414;BME280;60995;52.154;4.498;2023-07-29T04:57:43;100371.41;;;19.69;100.00
72414;BME280;60995;52.154;4.498;2023-07-29T05:00:00;100365.94;;;19.82;100.00
72414;BME280;60995;52.154;4.498;2023-07-29T05:02:16;100360.19;;;19.77;100.00
72414;BME280;60995;52.154;4.498;2023-07-29T05:04:32;100370.97;;;19.78;100.00
72414;BME280;60995;52.154;4.498;2023-07-29T05:06:49;100369.69;;;19.67;100.00
72414;BME280;60995;52.154;4.498;2023-07-29T05:09:16;100359.53;;;19.68;100.00
72414;BME280;60995;52.154;4.498;2023-07-29T05:11:34;100369.69;;;19.67;100.00
72414;BME280;60995;52.154;4.498;2023-07-29T05:13:50;100362.47;;;19.53;100.00
72414;BME280;60995;52.154;4.498;2023-07-29T05:16:07;100368.81;;;19.47;100.00
72414;BME280;60995;52.154;4.498;2023-07-29T05:18:23;100370.31;;;19.70;100.00
72414;BME280;60995;52.154;4.498;2023-07-29T05:20:39;100357.81;;;19.67;100.00
72414;BME280;60995;52.154;4.498;2023-07-29T05:22:56;100358.03;;;19.72;100.00
72414;BME280;60995;52.154;4.498;2023-07-29T05:25:12;100352.16;;;19.89;100.00
72414;BME280;60995;52.154;4.498;2023-07-29T05:27:28;100349.00;;;20.12;100.00
72414;BME280;60995;52.154;4.498;2023-07-29T05:29:44;100347.69;;;20.35;100.00
72414;BME280;60995;52.154;4.498;2023-07-29T05:32:01;100343.88;;;20.36;100.00
72414;BME280;60995;52.154;4.498;2023-07-29T05:34:17;100344.72;;;20.43;100.00
72414;BME280;60995;52.154;4.498;2023-07-29T05:36:33;100340.44;;;20.60;100.00
72414;BME280;60995;52.154;4.498;2023-07-29T05:38:50;100342.50;;;20.85;100.00
72414;BME280;60995;52.154;4.498;2023-07-29T05:41:07;100341.66;;;20.78;100.00
72414;BME280;60995;52.154;4.498;2023-07-29T05:43:24;100334.25;;;20.85;100.00
72414;BME280;60995;52.154;4.498;2023-07-29T05:45:40;100343.81;;;20.69;100.00
72414;BME280;60995;52.154;4.498;2023-07-29T05:47:56;100337.47;;;20.62;100.00
72414;BME280;60995;52.154;4.498;2023-07-29T05:50:13;100329.84;;;20.71;100.00
72414;BME280;60995;52.154;4.498;2023-07-29T05:52:29;100343.22;;;20.54;100.00
72414;BME280;60995;52.154;4.498;2023-07-29T05:54:45;100339.22;;;20.29;100.00
72414;BME280;60995;52.154;4.498;2023-07-29T05:57:02;100343.91;;;20.22;100.00
72414;BME280;60995;52.154;4.498;2023-07-29T05:59:18;100344.75;;;20.16;100.00
72414;BME280;60995;52.154;4.498;2023-07-29T06:01:34;100354.03;;;20.28;100.00
72414;BME280;60995;52.154;4.498;2023-07-29T06:03:50;100362.34;;;20.15;100.00
72414;BME280;60995;52.154;4.498;2023-07-29T06:06:07;100357.00;;;20.33;100.00
72414;BME280;60995;52.154;4.498;2023-07-29T06:08:23;100354.69;;;20.30;100.00
72414;BME280;60995;52.154;4.498;2023-07-29T06:10:40;100352.28;;;20.67;100.00
72414;BME280;60995;52.154;4.498;2023-07-29T06:12:56;100352.31;;;20.54;100.00
72414;BME280;60995;52.154;4.498;2023-07-29T06:15:12;100346.38;;;20.57;100.00
72414;BME280;60995;52.154;4.498;2023-07-29T06:17:29;100352.34;;;20.41;100.00
72414;BME280;60995;52.154;4.498;2023-07-29T06:19:47;100351.50;;;20.47;100.00
72414;BME280;60995;52.154;4.498;2023-07-29T06:22:06;100356.56;;;20.50;100.00
72414;BME280;60995;52.154;4.498;2023-07-29T06:24:23;100361.66;;;20.40;100.00
72414;BME280;60995;52.154;4.498;2023-07-29T06:26:39;100358.50;;;20.29;100.00
72414;BME280;60995;52.154;4.498;2023-07-29T06:28:55;100359.78;;;20.40;100.00
72414;BME280;60995;52.154;4.498;2023-07-29T06:31:11;100354.88;;;20.49;100.00
72414;BME280;60995;52.154;4.498;2023-07-29T06:33:28;100365.44;;;20.65;100.00
72414;BME280;60995;52.154;4.498;2023-07-29T06:35:44;100364.22;;;20.55;100.00
72414;BME280;60995;52.154;4.498;2023-07-29T06:38:00;100360.78;;;20.79;100.00
72414;BME280;60995;52.154;4.498;2023-07-29T06:40:17;100350.41;;;21.20;100.00
72414;BME280;60995;52.154;4.498;2023-07-29T06:42:33;100339.53;;;21.32;100.00
72414;BME280;60995;52.154;4.498;2023-07-29T06:44:49;100345.16;;;21.51;100.00
72414;BME280;60995;52.154;4.498;2023-07-29T06:47:05;100337.13;;;21.42;100.00
72414;BME280;60995;52.154;4.498;2023-07-29T06:49:22;100352.22;;;20.94;100.00
72414;BME280;60995;52.154;4.498;2023-07-29T06:51:39;100356.72;;;20.75;100.00
72414;BME280;60995;52.154;4.498;2023-07-29T06:53:55;100359.09;;;20.65;100.00
72414;BME280;60995;52.154;4.498;2023-07-29T06:56:11;100349.97;;;21.23;100.00
72414;BME280;60995;52.154;4.498;2023-07-29T06:58:28;100342.25;;;22.03;100.00
72414;BME280;60995;52.154;4.498;2023-07-29T07:00:44;100344.06;;;21.13;100.00
72414;BME280;60995;52.154;4.498;2023-07-29T07:03:00;100344.25;;;20.79;100.00
72414;BME280;60995;52.154;4.498;2023-07-29T07:05:16;100357.44;;;20.37;100.00
72414;BME280;60995;52.154;4.498;2023-07-29T07:07:33;100359.75;;;20.33;100.00
72414;BME280;60995;52.154;4.498;2023-07-29T07:09:49;100348.53;;;20.42;100.00
72414;BME280;60995;52.154;4.498;2023-07-29T07:12:05;100340.22;;;21.91;100.00
72414;BME280;60995;52.154;4.498;2023-07-29T07:14:22;100294.03;;;25.18;100.00
72414;BME280;60995;52.154;4.498;2023-07-29T07:16:38;100290.69;;;25.16;100.00
72414;BME280;60995;52.154;4.498;2023-07-29T07:18:55;100323.13;;;23.92;100.00
72414;BME280;60995;52.154;4.498;2023-07-29T07:21:12;100331.91;;;22.60;100.00
72414;BME280;60995;52.154;4.498;2023-07-29T07:23:28;100340.69;;;22.39;100.00
72414;BME280;60995;52.154;4.498;2023-07-29T07:25:45;100335.75;;;22.41;100.00
72414;BME280;60995;52.154;4.498;2023-07-29T07:28:01;100335.47;;;23.23;100.00
72414;BME280;60995;52.154;4.498;2023-07-29T07:30:17;100311.94;;;25.85;100.00
72414;BME280;60995;52.154;4.498;2023-07-29T07:32:33;100390.25;;;28.05;100.00
72414;BME280;60995;52.154;4.498;2023-07-29T07:34:50;100442.41;;;28.05;100.00
72414;BME280;60995;52.154;4.498;2023-07-29T07:37:06;100469.13;;;26.73;100.00
72414;BME280;60995;52.154;4.498;2023-07-29T07:39:22;100468.75;;;25.89;100.00
72414;BME280;60995;52.154;4.498;2023-07-29T07:41:40;100468.78;;;24.30;100.00
72414;BME280;60995;52.154;4.498;2023-07-29T07:43:57;100468.19;;;23.49;100.00
72414;BME280;60995;52.154;4.498;2023-07-29T07:46:13;100474.13;;;22.46;100.00
72414;BME280;60995;52.154;4.498;2023-07-29T07:48:29;100464.25;;;22.00;100.00
72414;BME280;60995;52.154;4.498;2023-07-29T07:50:45;100471.38;;;22.14;100.00
72414;BME280;60995;52.154;4.498;2023-07-29T07:53:01;100462.97;;;22.27;100.00
72414;BME280;60995;52.154;4.498;2023-07-29T07:55:18;100474.25;;;22.26;100.00
72414;BME280;60995;52.154;4.498;2023-07-29T07:57:34;100466.28;;;21.79;100.00
72414;BME280;60995;52.154;4.498;2023-07-29T07:59:50;100468.78;;;22.19;100.00
72414;BME280;60995;52.154;4.498;2023-07-29T08:02:08;100481.06;;;22.55;100.00
72414;BME280;60995;52.154;4.498;2023-07-29T08:04:24;100479.59;;;22.53;100.00
72414;BME280;60995;52.154;4.498;2023-07-29T08:06:40;100486.56;;;22.62;100.00
72414;BME280;60995;52.154;4.498;2023-07-29T08:08:57;100487.84;;;22.27;100.00
72414;BME280;60995;52.154;4.498;2023-07-29T08:11:13;100489.47;;;24.82;100.00
72414;BME280;60995;52.154;4.498;2023-07-29T08:13:30;100513.38;;;26.57;100.00
72414;BME280;60995;52.154;4.498;2023-07-29T08:15:50;100528.59;;;28.06;100.00
72414;BME280;60995;52.154;4.498;2023-07-29T08:18:07;100547.84;;;28.08;100.00
72414;BME280;60995;52.154;4.498;2023-07-29T08:20:23;100545.63;;;26.24;100.00
72414;BME280;60995;52.154;4.498;2023-07-29T08:22:39;100535.88;;;26.39;100.00
72414;BME280;60995;52.154;4.498;2023-07-29T08:24:56;100539.28;;;26.75;100.00
72414;BME280;60995;52.154;4.498;2023-07-29T08:27:12;100531.84;;;25.36;100.00
72414;BME280;60995;52.154;4.498;2023-07-29T08:29:29;100551.28;;;26.30;100.00
72414;BME280;60995;52.154;4.498;2023-07-29T08:31:46;100548.97;;;25.21;100.00
72414;BME280;60995;52.154;4.498;2023-07-29T08:34:02;100538.09;;;25.08;100.00
72414;BME280;60995;52.154;4.498;2023-07-29T08:36:18;100537.88;;;25.45;100.00
72414;BME280;60995;52.154;4.498;2023-07-29T08:38:34;100537.41;;;26.64;100.00
72414;BME280;60995;52.154;4.498;2023-07-29T08:41:00;100559.09;;;30.01;100.00
72414;BME280;60995;52.154;4.498;2023-07-29T08:43:29;100576.16;;;31.91;100.00
72414;BME280;60995;52.154;4.498;2023-07-29T08:45:49;100565.41;;;30.60;100.00
72414;BME280;60995;52.154;4.498;2023-07-29T08:48:08;100562.88;;;28.29;100.00
72414;BME280;60995;52.154;4.498;2023-07-29T08:50:31;100554.69;;;26.66;100.00
72414;BME280;60995;52.154;4.498;2023-07-29T08:52:49;100556.91;;;26.64;100.00
72414;BME280;60995;52.154;4.498;2023-07-29T08:55:08;100542.63;;;25.85;100.00
72414;BME280;60995;52.154;4.498;2023-07-29T08:57:27;100541.38;;;25.17;100.00
72414;BME280;60995;52.154;4.498;2023-07-29T08:59:44;100538.34;;;25.18;100.00
72414;BME280;60995;52.154;4.498;2023-07-29T09:02:01;100536.66;;;24.93;100.00
72414;BME280;60995;52.154;4.498;2023-07-29T09:04:18;100521.53;;;24.23;100.00
72414;BME280;60995;52.154;4.498;2023-07-29T09:06:35;100528.06;;;24.17;100.00
72414;BME280;60995;52.154;4.498;2023-07-29T09:08:54;100523.50;;;24.35;100.00
72414;BME280;60995;52.154;4.498;2023-07-29T09:11:14;100516.78;;;24.42;100.00
72414;BME280;60995;52.154;4.498;2023-07-29T09:13:33;100520.59;;;24.30;100.00
72414;BME280;60995;52.154;4.498;2023-07-29T09:15:49;100512.53;;;23.79;100.00
72414;BME280;60995;52.154;4.498;2023-07-29T09:18:17;100522.72;;;23.67;100.00
72414;BME280;60995;52.154;4.498;2023-07-29T09:20:35;100515.34;;;23.42;100.00
72414;BME280;60995;52.154;4.498;2023-07-29T09:22:54;100504.13;;;23.37;100.00
72414;BME280;60995;52.154;4.498;2023-07-29T09:25:13;100507.03;;;23.60;100.00
72414;BME280;60995;52.154;4.498;2023-07-29T09:27:35;100497.38;;;24.00;100.00
72414;BME280;60995;52.154;4.498;2023-07-29T09:29:55;100507.63;;;24.42;100.00
72414;BME280;60995;52.154;4.498;2023-07-29T09:32:23;100517.31;;;23.90;100.00
72414;BME280;60995;52.154;4.498;2023-07-29T09:34:43;100517.28;;;24.51;100.00
72414;BME280;60995;52.154;4.498;2023-07-29T09:36:59;100523.38;;;24.72;100.00
72414;BME280;60995;52.154;4.498;2023-07-29T09:39:16;100527.31;;;24.52;100.00
72414;BME280;60995;52.154;4.498;2023-07-29T09:41:32;100515.25;;;24.16;100.00
72414;BME280;60995;52.154;4.498;2023-07-29T09:43:55;100514.31;;;23.92;100.00
72414;BME280;60995;52.154;4.498;2023-07-29T09:46:13;100501.91;;;23.94;100.00
72414;BME280;60995;52.154;4.498;2023-07-29T09:48:34;100509.16;;;23.95;100.00
72414;BME280;60995;52.154;4.498;2023-07-29T09:50:51;100501.34;;;23.92;100.00
72414;BME280;60995;52.154;4.498;2023-07-29T09:53:10;100510.00;;;24.26;100.00
72414;BME280;60995;52.154;4.498;2023-07-29T09:55:27;100503.59;;;24.26;100.00
72414;BME280;60995;52.154;4.498;2023-07-29T09:57:43;100511.31;;;24.24;100.00
72414;BME280;60995;52.154;4.498;2023-07-29T09:59:59;100507.03;;;24.52;100.00
72414;BME280;60995;52.154;4.498;2023-07-29T10:02:17;100515.31;;;25.06;100.00
72414;BME280;60995;52.154;4.498;2023-07-29T10:04:34;100517.41;;;24.56;100.00
72414;BME280;60995;52.154;4.498;2023-07-29T10:06:52;100517.53;;;23.89;100.00
72414;BME280;60995;52.154;4.498;2023-07-29T10:09:11;100516.56;;;23.65;100.00
72414;BME280;60995;52.154;4.498;2023-07-29T10:11:29;100519.34;;;23.46;100.00
72414;BME280;60995;52.154;4.498;2023-07-29T10:13:47;100509.03;;;23.35;100.00
72414;BME280;60995;52.154;4.498;2023-07-29T10:16:04;100521.56;;;23.19;100.00
72414;BME280;60995;52.154;4.498;2023-07-29T10:18:22;100516.81;;;23.01;100.00
72414;BME280;60995;52.154;4.498;2023-07-29T10:20:41;100531.34;;;22.71;100.00
72414;BME280;60995;52.154;4.498;2023-07-29T10:23:00;100533.53;;;22.37;100.00
72414;BME280;60995;52.154;4.498;2023-07-29T10:25:25;100526.41;;;21.77;100.00
72414;BME280;60995;52.154;4.498;2023-07-29T10:28:20;100522.47;;;21.39;100.00
72414;BME280;60995;52.154;4.498;2023-07-29T10:30:43;100528.06;;;21.12;100.00
72414;BME280;60995;52.154;4.498;2023-07-29T10:33:04;100511.28;;;21.14;100.00
72414;BME280;60995;52.154;4.498;2023-07-29T10:35:21;100498.34;;;21.80;100.00
72414;BME280;60995;52.154;4.498;2023-07-29T10:37:38;100491.13;;;22.50;100.00
72414;BME280;60995;52.154;4.498;2023-07-29T10:39:55;100491.09;;;23.00;100.00
72414;BME280;60995;52.154;4.498;2023-07-29T10:42:12;100501.66;;;23.47;100.00
72414;BME280;60995;52.154;4.498;2023-07-29T10:46:59;100518.75;;;24.23;100.00
72414;BME280;60995;52.154;4.498;2023-07-29T10:49:23;100532.84;;;24.10;100.00
72414;BME280;60995;52.154;4.498;2023-07-29T10:51:40;100537.44;;;24.16;100.00
72414;BME280;60995;52.154;4.498;2023-07-29T10:54:12;100551.25;;;24.04;100.00
72414;BME280;60995;52.154;4.498;2023-07-29T10:56:34;100549.47;;;24.10;100.00
72414;BME280;60995;52.154;4.498;2023-07-29T10:58:52;100560.72;;;23.59;100.00
72414;BME280;60995;52.154;4.498;2023-07-29T11:01:26;100556.25;;;23.40;100.00
72414;BME280;60995;52.154;4.498;2023-07-29T11:04:22;100556.25;;;23.40;100.00
72414;BME280;60995;52.154;4.498;2023-07-29T11:09:42;100563.09;;;22.93;100.00
72414;BME280;60995;52.154;4.498;2023-07-29T11:12:37;100554.66;;;23.07;100.00
72414;BME280;60995;52.154;4.498;2023-07-29T11:14:56;100574.28;;;22.48;100.00
72414;BME280;60995;52.154;4.498;2023-07-29T11:17:13;100568.22;;;21.80;100.00
72414;BME280;60995;52.154;4.498;2023-07-29T11:19:30;100575.41;;;21.16;100.00
72414;BME280;60995;52.154;4.498;2023-07-29T11:21:47;100569.88;;;20.89;100.00
72414;BME280;60995;52.154;4.498;2023-07-29T11:24:04;100541.25;;;20.90;100.00
72414;BME280;60995;52.154;4.498;2023-07-29T11:26:20;100544.78;;;20.37;100.00
72414;BME280;60995;52.154;4.498;2023-07-29T11:28:39;100543.09;;;20.29;100.00
72414;BME280;60995;52.154;4.498;2023-07-29T11:30:57;100546.88;;;20.15;100.00
72414;BME280;60995;52.154;4.498;2023-07-29T11:33:14;100555.72;;;20.04;100.00
72414;BME280;60995;52.154;4.498;2023-07-29T11:35:32;100566.13;;;20.08;100.00
72414;BME280;60995;52.154;4.498;2023-07-29T11:37:50;100568.75;;;20.37;100.00
72414;BME280;60995;52.154;4.498;2023-07-29T11:40:08;100556.75;;;20.91;100.00
72414;BME280;60995;52.154;4.498;2023-07-29T11:42:27;100521.38;;;21.47;100.00
72414;BME280;60995;52.154;4.498;2023-07-29T11:44:44;100498.69;;;21.45;100.00
72414;BME280;60995;52.154;4.498;2023-07-29T11:47:00;100471.34;;;21.82;100.00
72414;BME280;60995;52.154;4.498;2023-07-29T11:49:16;100456.81;;;22.57;100.00
72414;BME280;60995;52.154;4.498;2023-07-29T11:51:33;100448.31;;;23.21;100.00
72414;BME280;60995;52.154;4.498;2023-07-29T11:53:49;100433.50;;;23.76;100.00
72414;BME280;60995;52.154;4.498;2023-07-29T11:56:05;100440.06;;;24.24;100.00
72414;BME280;60995;52.154;4.498;2023-07-29T11:58:22;100454.63;;;24.74;100.00
72414;BME280;60995;52.154;4.498;2023-07-29T12:00:39;100508.91;;;24.27;100.00